Time;durP1;ratioP1;P1;durP2;ratioP2;P2;SDS_P1;SDS_P2;PMS_P1;PMS_P2;Temp;Humidity;BMP_temperature;BMP_pressure;BME280_temperature;BME280_humidity;BME280_pressure;Samples;Min_cycle;Max_cycle;Signal;HPM_P1;HPM_P2
2022/07/23 00:00:10;;;;;;;;;22.75;18.75;;;;;20.95;73.66;100948.41;5005128;28;45544;-75
2022/07/23 00:02:36;;;;;;;;;22.75;21.75;;;;;20.99;73.34;100943.75;5001321;28;45400;-76
2022/07/23 00:05:02;;;;;;;;;25.75;23.00;;;;;21.00;73.50;100946.34;4997219;28;45672;-76
2022/07/23 00:07:27;;;;;;;;;25.25;22.50;;;;;20.92;73.04;100938.75;5008964;28;46855;-76
2022/07/23 00:09:52;;;;;;;;;22.25;20.75;;;;;20.97;73.33;100940.28;5011236;28;45323;-75
2022/07/23 00:12:18;;;;;;;;;27.00;23.75;;;;;20.99;73.36;100943.75;4997693;28;45336;-76
2022/07/23 00:14:43;;;;;;;;;25.00;25.00;;;;;21.07;73.23;100953.13;4997492;28;45399;-76
2022/07/23 00:17:09;;;;;;;;;27.50;25.00;;;;;21.10;73.19;100942.19;4997583;28;46037;-77
2022/07/23 00:19:34;;;;;;;;;28.25;18.25;;;;;21.10;73.13;100947.56;4993629;28;45358;-77
2022/07/23 00:21:59;;;;;;;;;28.75;24.25;;;;;21.11;73.18;100949.28;4996075;28;45337;-77
2022/07/23 00:24:25;;;;;;;;;30.00;25.25;;;;;21.14;73.23;100942.00;4995053;28;45602;-76
2022/07/23 00:26:50;;;;;;;;;28.75;26.00;;;;;21.14;73.03;100942.84;5004709;28;46287;-76
2022/07/23 00:29:16;;;;;;;;;28.25;27.50;;;;;21.18;73.12;100947.09;5008527;28;45429;-75
2022/07/23 00:31:41;;;;;;;;;25.00;21.75;;;;;21.15;73.18;100938.34;5005047;28;45418;-76
2022/07/23 00:34:06;;;;;;;;;25.75;23.50;;;;;21.16;72.72;100932.03;5017309;28;45356;-76
2022/07/23 00:36:32;;;;;;;;;28.00;22.75;;;;;21.20;72.88;100944.34;4996050;28;46316;-76
2022/07/23 00:38:58;;;;;;;;;29.00;24.50;;;;;21.15;72.61;100928.47;4995133;28;45446;-76
2022/07/23 00:41:23;;;;;;;;;25.75;22.25;;;;;21.20;72.23;100934.44;4994843;28;45436;-76
2022/07/23 00:43:49;;;;;;;;;21.75;18.75;;;;;21.23;71.99;100936.09;5002451;28;45414;-76
2022/07/23 00:46:22;;;;;;;;;19.25;18.00;;;;;21.23;71.86;100941.47;5014303;28;45662;-76
2022/07/23 00:48:48;;;;;;;;;20.25;20.25;;;;;21.21;72.37;100943.34;4995589;28;45341;-76
2022/07/23 00:51:16;;;;;;;;;32.25;28.75;;;;;20.99;73.28;100906.16;5007129;28;45462;-75
2022/07/23 00:53:42;;;;;;;;;26.50;21.50;;;;;21.06;73.87;100918.25;4995657;28;45364;-76
2022/07/23 00:56:08;;;;;;;;;31.50;29.75;;;;;21.18;74.74;100935.47;4995340;28;46397;-76
2022/07/23 00:58:35;;;;;;;;;35.75;29.25;;;;;21.14;75.18;100923.19;4995173;28;45458;-76
2022/07/23 01:01:00;;;;;;;;;33.00;27.75;;;;;21.10;76.08;100931.44;5004632;28;45440;-75
2022/07/23 01:03:25;;;;;;;;;30.50;29.50;;;;;21.14;76.09;100933.94;4995737;28;45407;-75
2022/07/23 01:05:51;;;;;;;;;30.50;29.00;;;;;21.14;76.39;100931.25;4998968;28;46110;-76
2022/07/23 01:08:18;;;;;;;;;31.75;27.25;;;;;21.13;76.56;100935.75;5003671;28;45435;-76
2022/07/23 01:10:43;;;;;;;;;32.25;28.50;;;;;21.15;76.27;100941.03;4993165;28;45447;-76
2022/07/23 01:13:09;;;;;;;;;30.00;24.50;;;;;21.16;76.28;100937.41;5009056;28;45380;-77
2022/07/23 01:15:37;;;;;;;;;28.00;27.00;;;;;21.09;76.31;100924.31;5003494;28;45431;-75
2022/07/23 01:18:03;;;;;;;;;29.75;27.50;;;;;21.12;76.07;100929.50;4993743;28;45872;-76
2022/07/23 01:20:30;;;;;;;;;30.25;26.00;;;;;21.17;75.94;100939.13;4995685;28;45411;-75
2022/07/23 01:22:55;;;;;;;;;33.00;28.00;;;;;21.18;75.85;100936.34;4995296;28;45342;-76
2022/07/23 01:25:22;;;;;;;;;33.75;27.25;;;;;21.17;75.91;100939.13;4993979;28;45461;-76
2022/07/23 01:27:48;;;;;;;;;37.00;33.00;;;;;21.16;76.09;100932.03;5010046;28;45353;-76
2022/07/23 01:30:13;;;;;;;;;30.50;28.00;;;;;21.16;75.95;100934.72;4993593;28;45614;-77
2022/07/23 01:32:39;;;;;;;;;35.50;29.50;;;;;21.17;75.89;100939.13;4994662;28;45604;-75
2022/07/23 01:35:06;;;;;;;;;40.75;31.50;;;;;21.07;75.97;100931.63;4994400;28;45687;-76
2022/07/23 01:37:31;;;;;;;;;37.50;29.00;;;;;21.12;76.33;100936.72;4994440;28;45693;-76
2022/07/23 01:39:56;;;;;;;;;33.25;31.25;;;;;21.12;76.42;100940.25;4995292;28;45431;-78
2022/07/23 01:42:23;;;;;;;;;32.75;32.50;;;;;21.10;76.60;100927.88;4995401;28;45427;-76
2022/07/23 01:44:48;;;;;;;;;34.50;31.25;;;;;21.10;76.39;100926.06;4990069;28;46194;-76
2022/07/23 01:47:13;;;;;;;;;36.00;30.25;;;;;21.05;76.29;100917.38;5006140;28;45508;-76
2022/07/23 01:49:39;;;;;;;;;28.50;25.00;;;;;21.09;76.38;100928.84;4994434;28;45443;-76
2022/07/23 01:52:09;;;;;;;;;30.50;26.00;;;;;21.09;76.47;100929.69;5009598;28;45321;-76
2022/07/23 01:54:34;;;;;;;;;31.25;28.00;;;;;21.02;76.09;100908.66;5014167;28;45393;-76
2022/07/23 01:57:00;;;;;;;;;33.50;28.75;;;;;21.07;76.19;100922.66;4997597;28;45467;-76
2022/07/23 01:59:26;;;;;;;;;30.50;27.50;;;;;21.09;76.19;100918.94;4994684;28;45384;-77
2022/07/23 02:01:52;;;;;;;;;31.50;29.00;;;;;21.08;76.24;100917.22;4993534;28;45422;-76
2022/07/23 02:04:18;;;;;;;;;37.00;33.50;;;;;21.09;76.27;100910.88;5009755;28;46160;-75
2022/07/23 02:06:44;;;;;;;;;34.25;31.00;;;;;21.07;76.47;100917.28;5003219;28;45384;-77
2022/07/23 02:09:09;;;;;;;;;27.25;25.25;;;;;21.05;76.63;100922.75;4993759;28;45342;-76
2022/07/23 02:11:36;;;;;;;;;28.75;26.25;;;;;21.02;76.52;100925.63;5008356;28;45466;-76
2022/07/23 02:14:01;;;;;;;;;27.75;26.25;;;;;21.01;76.36;100917.66;5010585;28;45400;-76
2022/07/23 02:16:26;;;;;;;;;30.00;25.50;;;;;21.01;76.17;100921.19;5011162;28;45392;-76
2022/07/23 02:18:52;;;;;;;;;30.25;27.75;;;;;20.94;75.89;100906.41;5004684;28;45340;-74
2022/07/23 02:21:17;;;;;;;;;30.00;25.50;;;;;21.01;76.17;100931.94;5004036;28;45340;-76
2022/07/23 02:23:42;;;;;;;;;25.75;24.75;;;;;20.86;75.96;100905.97;5011937;28;46735;-77
2022/07/23 02:26:08;;;;;;;;;30.50;28.75;;;;;20.95;75.73;100926.94;5013203;28;45417;-76
2022/07/23 02:28:33;;;;;;;;;24.00;23.50;;;;;20.86;75.58;100905.97;5001274;28;45538;-76
2022/07/23 02:30:58;;;;;;;;;32.50;24.25;;;;;20.97;75.39;100935.78;4985064;28;45595;-77
2022/07/23 02:33:24;;;;;;;;;25.25;22.00;;;;;20.99;75.56;100943.75;5004604;28;45505;-77
2022/07/23 02:35:49;;;;;;;;;29.75;24.75;;;;;21.00;75.14;100942.78;5009950;28;45523;-76
2022/07/23 02:38:14;;;;;;;;;28.00;25.25;;;;;20.93;75.04;100942.28;5007913;28;47468;-77
2022/07/23 02:40:41;;;;;;;;;29.50;24.75;;;;;20.99;74.73;100938.38;4993875;28;45827;-76
2022/07/23 02:43:06;;;;;;;;;21.00;19.00;;;;;20.98;74.49;100942.00;4994922;28;46082;-77
2022/07/23 02:45:32;;;;;;;;;24.75;21.25;;;;;20.84;74.34;100926.69;4996352;28;45511;-76
2022/07/23 02:47:57;;;;;;;;;23.25;20.75;;;;;20.93;74.08;100939.59;5003882;28;45521;-75
2022/07/23 02:50:23;;;;;;;;;18.75;17.75;;;;;20.92;74.03;100946.81;4993935;28;45405;-76
2022/07/23 02:52:48;;;;;;;;;22.75;18.50;;;;;20.93;74.23;100936.91;4995317;28;45503;-76
2022/07/23 02:55:14;;;;;;;;;23.25;20.25;;;;;20.85;74.00;100929.28;5003855;28;45434;-76
2022/07/23 02:57:39;;;;;;;;;23.00;20.75;;;;;20.79;73.99;100920.75;4993414;28;45416;-77
2022/07/23 03:00:08;;;;;;;;;19.00;19.00;;;;;20.87;73.88;100948.88;4992551;28;45376;-78
2022/07/23 03:02:33;;;;;;;;;21.50;18.50;;;;;20.84;73.91;100948.19;4993655;28;45518;-76
2022/07/23 03:04:58;;;;;;;;;20.00;18.00;;;;;20.83;73.90;100959.88;4994918;28;45573;-76
2022/07/23 03:07:24;;;;;;;;;28.00;24.25;;;;;20.73;73.93;100955.03;4995126;28;45367;-77
2022/07/23 03:09:49;;;;;;;;;24.75;21.50;;;;;20.76;74.20;100959.38;4992703;28;45454;-76
2022/07/23 03:12:15;;;;;;;;;15.75;14.00;;;;;20.71;74.56;100967.69;5005905;28;45403;-76
2022/07/23 03:14:42;;;;;;;;;27.25;20.50;;;;;20.76;74.39;100964.75;4999606;28;45363;-75
2022/07/23 03:17:08;;;;;;;;;31.00;26.25;;;;;20.75;74.53;100971.91;5008377;28;45385;-75
2022/07/23 03:19:34;;;;;;;;;24.75;21.25;;;;;20.74;75.13;100972.00;5013244;28;45376;-76
2022/07/23 03:21:59;;;;;;;;;29.50;24.50;;;;;20.71;75.30;100967.69;4996693;28;47438;-77
2022/07/23 03:24:53;;;;;;;;;22.50;22.50;;;;;20.70;75.52;100971.31;4993490;28;45379;-77
2022/07/23 03:27:11;;;;;;;;;25.50;24.50;;;;;20.69;76.05;100966.03;5008733;28;45583;-76
2022/07/23 03:29:36;;;;;;;;;27.00;25.75;;;;;20.66;76.04;100964.38;4996799;28;45323;-77
2022/07/23 03:32:03;;;;;;;;;33.75;28.00;;;;;20.69;76.12;100977.63;4996529;28;46152;-76
2022/07/23 03:34:28;;;;;;;;;28.25;26.00;;;;;20.63;76.18;100960.97;4993081;28;45620;-76
2022/07/23 03:36:54;;;;;;;;;25.75;24.50;;;;;20.65;76.45;100972.47;4997405;28;45630;-77
2022/07/23 03:39:19;;;;;;;;;30.25;26.50;;;;;20.62;76.70;100967.28;5028619;28;45684;-75
2022/07/23 03:41:45;;;;;;;;;23.25;20.75;;;;;20.66;76.79;100980.47;5002513;28;47422;-76
2022/07/23 03:44:10;;;;;;;;;28.25;24.50;;;;;20.58;77.06;100966.59;5013426;28;45533;-75
2022/07/23 03:46:35;;;;;;;;;27.50;26.00;;;;;20.62;77.05;100973.53;5008711;28;45416;-77
2022/07/23 03:49:01;;;;;;;;;26.25;25.00;;;;;20.54;77.16;100962.34;5006180;28;45466;-76
2022/07/23 03:51:26;;;;;;;;;22.50;22.50;;;;;20.66;77.04;100979.63;5003661;28;46013;-75
2022/07/23 03:53:51;;;;;;;;;23.00;20.25;;;;;20.65;76.82;100983.22;4993082;28;45502;-76
2022/07/23 03:56:17;;;;;;;;;28.75;27.50;;;;;20.59;76.62;100979.09;5000107;28;45804;-76
2022/07/23 03:58:42;;;;;;;;;25.00;22.75;;;;;20.63;76.78;100990.50;5013167;28;45402;-77
2022/07/23 04:01:09;;;;;;;;;22.50;18.75;;;;;20.61;76.66;100990.59;5006565;28;45450;-76
2022/07/23 04:03:35;;;;;;;;;19.00;18.00;;;;;20.58;76.51;100983.56;4996309;28;45455;-76
2022/07/23 04:06:00;;;;;;;;;22.75;21.75;;;;;20.53;76.41;100980.28;5004796;28;45569;-76
2022/07/23 04:08:26;;;;;;;;;26.75;20.75;;;;;20.59;76.44;100997.88;5017357;28;45330;-75
2022/07/23 04:10:52;;;;;;;;;29.75;25.25;;;;;20.56;76.45;100995.38;5015594;28;45289;-76
2022/07/23 04:13:17;;;;;;;;;24.50;22.25;;;;;20.53;76.09;100998.22;5014054;28;45349;-76
2022/07/23 04:15:44;;;;;;;;;28.50;22.00;;;;;20.51;75.86;100981.31;4995311;28;45380;-76
2022/07/23 04:18:09;;;;;;;;;23.25;22.00;;;;;20.49;75.80;100996.66;5013169;28;45605;-75
2022/07/23 04:20:35;;;;;;;;;18.50;18.25;;;;;20.34;75.83;100985.78;5031835;28;45567;-76
2022/07/23 04:23:00;;;;;;;;;19.25;17.25;;;;;20.45;75.67;100998.63;5012476;28;45453;-76
2022/07/23 04:25:25;;;;;;;;;22.50;21.50;;;;;20.34;75.56;100991.16;4995688;28;45577;-77
2022/07/23 04:27:50;;;;;;;;;21.00;18.25;;;;;20.39;75.46;100988.22;4996253;28;45445;-75
2022/07/23 04:30:16;;;;;;;;;23.50;22.25;;;;;20.41;75.70;100997.94;4995849;28;45426;-75
2022/07/23 04:32:41;;;;;;;;;19.25;17.00;;;;;20.42;75.68;100993.41;5014197;28;45481;-77
2022/07/23 04:35:07;;;;;;;;;20.25;17.00;;;;;20.43;75.52;101003.22;4996553;28;45907;-76
2022/07/23 04:37:32;;;;;;;;;29.75;26.25;;;;;20.44;75.87;101001.38;4997436;28;45477;-76
2022/07/23 04:39:58;;;;;;;;;24.50;20.75;;;;;20.45;75.59;101003.13;4994934;28;45480;-76
2022/07/23 04:42:23;;;;;;;;;22.75;17.00;;;;;20.46;75.15;101003.03;4995532;28;45491;-75
2022/07/23 04:44:50;;;;;;;;;27.25;23.50;;;;;20.50;74.86;101001.06;4995284;28;45378;-76
2022/07/23 04:47:15;;;;;;;;;26.50;22.25;;;;;20.53;74.68;100998.22;5006897;28;45431;-75
2022/07/23 04:49:40;;;;;;;;;21.00;18.00;;;;;20.54;74.42;101002.63;4999133;28;46297;-76
2022/07/23 04:52:06;;;;;;;;;17.00;15.50;;;;;20.50;74.18;100987.66;5015470;28;45418;-76
2022/07/23 04:54:32;;;;;;;;;23.25;22.00;;;;;20.62;74.43;101003.09;4994728;28;45574;-75
2022/07/23 04:56:57;;;;;;;;;20.25;19.00;;;;;20.58;73.68;100996.13;5005501;28;45504;-76
2022/07/23 04:59:22;;;;;;;;;20.25;17.50;;;;;20.64;73.93;101009.22;5014430;28;47102;-77
2022/07/23 05:01:48;;;;;;;;;28.25;23.25;;;;;20.69;73.29;101007.16;5030752;28;45435;-77
2022/07/23 05:04:13;;;;;;;;;25.75;18.50;;;;;20.71;72.93;101010.66;5008464;28;45499;-76
2022/07/23 05:06:38;;;;;;;;;23.25;18.00;;;;;20.77;72.98;101009.47;5005601;28;45534;-76
2022/07/23 05:09:04;;;;;;;;;16.25;14.75;;;;;20.80;72.60;101014.66;4994028;28;46141;-76
2022/07/23 05:11:29;;;;;;;;;20.50;18.50;;;;;20.84;72.26;101015.34;4994612;28;45452;-76
2022/07/23 05:13:54;;;;;;;;;23.50;18.75;;;;;20.92;72.03;101015.75;4993152;28;45812;-76
2022/07/23 05:16:20;;;;;;;;;20.75;18.00;;;;;20.99;71.44;101013.59;4995480;28;45431;-76
2022/07/23 05:18:45;;;;;;;;;18.25;17.25;;;;;21.18;71.05;101002.66;4995017;28;45438;-76
2022/07/23 05:21:12;;;;;;;;;18.75;18.25;;;;;21.51;69.62;101007.06;4996818;28;45409;-77
2022/07/23 05:23:37;;;;;;;;;18.75;16.50;;;;;21.65;68.79;101012.47;4994198;28;45531;-77
2022/07/23 05:26:03;;;;;;;;;16.75;14.25;;;;;21.68;68.82;101006.91;4996033;28;45577;-76
2022/07/23 05:28:28;;;;;;;;;18.50;18.00;;;;;21.60;68.69;100988.53;5014495;28;45589;-76
2022/07/23 05:30:53;;;;;;;;;19.00;17.75;;;;;21.70;68.50;100999.63;5014383;28;45437;-76
2022/07/23 05:33:19;;;;;;;;;22.00;20.75;;;;;21.64;68.29;101000.00;5013434;28;45346;-76
2022/07/23 05:35:45;;;;;;;;;19.25;15.75;;;;;21.65;68.50;101007.09;4998574;28;45617;-76
2022/07/23 05:38:10;;;;;;;;;20.50;17.00;;;;;21.70;68.18;101004.16;5003696;28;46137;-76
2022/07/23 05:40:36;;;;;;;;;23.00;16.75;;;;;21.58;68.35;100982.41;5010822;28;45569;-77
2022/07/23 05:43:01;;;;;;;;;18.25;15.75;;;;;21.83;68.10;101005.13;5013304;28;45347;-75
2022/07/23 05:45:27;;;;;;;;;13.00;13.00;;;;;21.93;67.94;101005.44;4997069;28;45379;-74
2022/07/23 05:47:53;;;;;;;;;13.50;12.25;;;;;22.08;67.97;101007.19;4997283;28;45495;-76
2022/07/23 05:50:19;;;;;;;;;18.75;18.75;;;;;22.10;66.57;100986.41;5007589;28;45471;-75
2022/07/23 05:52:44;;;;;;;;;18.25;17.50;;;;;22.30;66.29;101008.53;4994901;28;45449;-77
2022/07/23 05:55:12;;;;;;;;;22.75;19.25;;;;;22.34;66.59;101015.50;4994247;28;45653;-76
2022/07/23 05:57:37;;;;;;;;;17.00;14.75;;;;;22.13;65.91;100986.22;5010729;28;46494;-80
2022/07/23 06:00:06;;;;;;;;;25.25;20.00;;;;;22.28;66.26;101021.25;5011308;28;45397;-77
2022/07/23 06:02:31;;;;;;;;;20.75;18.50;;;;;22.17;66.68;101025.47;5026196;28;45430;-77
2022/07/23 06:04:56;;;;;;;;;24.50;22.75;;;;;22.13;67.53;101018.53;4993524;28;45254;-76
2022/07/23 06:07:22;;;;;;;;;25.25;23.00;;;;;22.17;67.54;101027.28;4994813;28;46290;-76
2022/07/23 06:09:48;;;;;;;;;27.00;22.25;;;;;22.07;67.17;101009.97;4994591;28;45432;-76
2022/07/23 06:12:15;;;;;;;;;28.50;27.25;;;;;22.15;67.58;101031.88;4993227;28;45510;-75
2022/07/23 06:14:40;;;;;;;;;37.00;26.25;;;;;22.15;67.77;101024.69;4992502;28;45449;-77
2022/07/23 06:17:05;;;;;;;;;30.00;27.50;;;;;21.98;67.40;100988.03;5007877;28;47534;-75
2022/07/23 06:19:31;;;;;;;;;32.00;27.50;;;;;22.22;67.60;101022.47;4994121;28;45434;-76
2022/07/23 06:21:57;;;;;;;;;27.75;24.00;;;;;22.25;67.53;101032.19;4990015;28;45561;-77
2022/07/23 06:24:23;;;;;;;;;30.75;25.75;;;;;22.34;67.39;101028.97;4990942;28;45547;-77
2022/07/23 06:26:49;;;;;;;;;34.00;31.50;;;;;22.24;67.24;101017.00;4998429;28;46144;-76
2022/07/23 06:29:15;;;;;;;;;32.25;29.25;;;;;22.26;67.23;101029.41;4992883;28;45391;-76
2022/07/23 06:31:40;;;;;;;;;23.00;20.50;;;;;22.25;67.40;101032.19;4993704;28;45618;-75
2022/07/23 06:34:05;;;;;;;;;34.75;29.50;;;;;22.09;67.73;101032.25;4992919;28;45482;-77
2022/07/23 06:36:31;;;;;;;;;26.50;26.25;;;;;22.12;67.88;101050.91;4992243;28;46061;-76
2022/07/23 06:38:56;;;;;;;;;32.50;26.00;;;;;22.02;68.25;101053.31;4994172;28;45375;-77
2022/07/23 06:41:23;;;;;;;;;33.75;31.00;;;;;21.95;68.86;101052.81;4993964;28;45424;-76
2022/07/23 06:43:49;;;;;;;;;33.00;25.00;;;;;21.91;68.42;101051.28;4999837;28;45498;-76
2022/07/23 06:46:14;;;;;;;;;32.50;29.00;;;;;21.85;69.15;101056.13;4991294;28;46062;-75
2022/07/23 06:48:39;;;;;;;;;34.50;25.75;;;;;21.68;69.38;101041.88;4993823;28;45492;-76
2022/07/23 06:51:05;;;;;;;;;37.50;34.00;;;;;21.76;69.21;101061.13;4992855;28;45543;-77
2022/07/23 06:53:30;;;;;;;;;33.75;30.00;;;;;21.75;69.60;101051.31;4992679;28;45358;-75
2022/07/23 06:55:55;;;;;;;;;35.50;31.50;;;;;21.73;69.85;101055.94;4990411;28;45579;-77
2022/07/23 06:58:21;;;;;;;;;41.50;36.50;;;;;21.78;69.32;101055.66;4991561;28;45463;-77
2022/07/23 07:00:47;;;;;;;;;40.75;35.25;;;;;21.67;69.48;101033.88;4993437;28;45482;-75
2022/07/23 07:03:12;;;;;;;;;36.00;29.75;;;;;21.84;68.84;101057.97;5009597;28;45790;-77
2022/07/23 07:05:39;;;;;;;;;29.25;26.75;;;;;21.96;69.33;101067.16;4992883;28;45466;-76
2022/07/23 07:08:05;;;;;;;;;33.25;32.00;;;;;22.06;68.78;101062.94;4992247;28;45443;-75
2022/07/23 07:10:30;;;;;;;;;37.00;36.50;;;;;22.14;68.33;101067.84;4993308;28;45498;-77
2022/07/23 07:12:56;;;;;;;;;43.00;36.25;;;;;22.13;68.31;101076.88;4999617;28;45643;-76
2022/07/23 07:15:21;;;;;;;;;43.75;36.50;;;;;22.10;68.29;101072.53;4994305;28;45970;-76
2022/07/23 07:17:47;;;;;;;;;46.00;37.25;;;;;22.13;68.12;101083.13;4994400;28;45427;-76
2022/07/23 07:20:12;;;;;;;;;48.50;36.75;;;;;22.03;68.74;101068.50;4991826;28;45473;-76
2022/07/23 07:22:37;;;;;;;;;41.75;37.50;;;;;22.10;68.26;101088.69;4993091;28;45376;-75
2022/07/23 07:25:03;;;;;;;;;44.25;33.75;;;;;22.16;68.08;101099.09;4994526;28;45361;-77
2022/07/23 07:27:29;;;;;;;;;47.50;38.75;;;;;22.14;68.35;101084.88;4993596;28;45535;-76
2022/07/23 07:29:54;;;;;;;;;42.25;35.75;;;;;22.30;68.02;101094.69;4992536;28;45540;-76
2022/07/23 07:32:19;;;;;;;;;47.25;36.75;;;;;22.31;68.12;101091.94;4996197;28;45653;-78
2022/07/23 07:34:45;;;;;;;;;36.75;32.00;;;;;22.34;68.31;101097.13;4992685;28;46651;-75
2022/07/23 07:37:10;;;;;;;;;36.00;30.25;;;;;22.34;67.57;101085.50;4995556;28;45910;-77
2022/07/23 07:39:35;;;;;;;;;42.25;38.00;;;;;22.34;67.67;101105.22;4995754;28;45349;-76
2022/07/23 07:42:01;;;;;;;;;41.50;36.00;;;;;22.31;67.82;101086.56;4995000;28;45658;-75
2022/07/23 07:44:26;;;;;;;;;46.75;38.00;;;;;22.36;67.00;101091.66;4996517;28;46492;-76
2022/07/23 07:46:52;;;;;;;;;39.50;33.00;;;;;22.40;67.74;101100.44;5011944;28;45442;-77
2022/07/23 07:49:19;;;;;;;;;40.25;35.75;;;;;22.44;67.26;101107.34;5004880;28;45495;-75
2022/07/23 07:51:45;;;;;;;;;34.25;32.50;;;;;22.45;67.41;101106.38;4997169;28;45612;-75
2022/07/23 07:54:10;;;;;;;;;41.50;34.50;;;;;22.36;67.69;101083.56;4996813;28;45468;-74
2022/07/23 07:56:36;;;;;;;;;46.00;36.50;;;;;22.44;66.96;101092.06;4995753;28;45438;-76
2022/07/23 07:59:01;;;;;;;;;42.50;36.25;;;;;22.44;67.15;101097.44;4995687;28;45457;-75
2022/07/23 08:01:27;;;;;;;;;40.50;34.25;;;;;22.53;67.95;101107.66;4997886;28;45358;-78
2022/07/23 08:03:52;;;;;;;;;38.25;34.75;;;;;22.65;67.27;101115.91;4995571;28;46269;-78
2022/07/23 08:06:17;;;;;;;;;47.25;36.00;;;;;22.73;66.78;101110.94;4995670;28;45496;-77
2022/07/23 08:08:43;;;;;;;;;39.75;35.75;;;;;22.78;66.66;101106.09;4999098;28;45338;-78
2022/07/23 08:11:08;;;;;;;;;41.25;35.00;;;;;22.89;65.51;101103.59;5002066;28;45312;-77
2022/07/23 08:13:34;;;;;;;;;43.25;34.00;;;;;23.07;65.90;101109.63;4997388;28;45541;-77
2022/07/23 08:16:01;;;;;;;;;39.25;35.00;;;;;23.33;65.14;101106.25;4996574;28;45651;-77
2022/07/23 08:18:26;;;;;;;;;34.25;31.25;;;;;23.71;63.48;101110.94;4993959;28;45509;-79
2022/07/23 08:20:51;;;;;;;;;45.00;37.00;;;;;24.08;62.44;101113.88;4995857;28;45638;-77
2022/07/23 08:23:19;;;;;;;;;33.00;31.50;;;;;24.62;61.51;101124.53;4998781;28;46120;-78
2022/07/23 08:25:46;;;;;;;;;37.50;34.00;;;;;24.88;60.16;101116.41;4993024;28;45792;-78
2022/07/23 08:28:13;;;;;;;;;37.50;34.75;;;;;25.06;59.08;101122.31;4994879;28;45452;-79
2022/07/23 08:30:40;;;;;;;;;39.75;34.25;;;;;25.15;58.97;101120.78;4997370;28;45618;-78
2022/07/23 08:33:12;;;;;;;;;36.75;32.25;;;;;25.41;58.65;101123.47;4995001;28;49155;-79
2022/07/23 08:35:41;;;;;;;;;44.00;35.00;;;;;25.55;57.93;101128.69;4993321;28;45330;-77
2022/07/23 08:38:08;;;;;;;;;41.75;35.25;;;;;25.60;57.76;101129.22;4994941;28;45474;-79
2022/07/23 08:40:37;;;;;;;;;35.50;31.50;;;;;25.71;57.19;101137.38;4993949;28;45598;-77
2022/07/23 08:43:06;;;;;;;;;37.00;30.50;;;;;25.68;56.25;101145.75;4995062;28;46190;-76
2022/07/23 08:45:36;;;;;;;;;37.25;33.00;;;;;25.66;56.36;101153.13;4992800;28;45522;-76
2022/07/23 08:48:02;;;;;;;;;25.50;25.00;;;;;25.52;56.43;101142.44;4995502;28;45313;-78
2022/07/23 08:50:28;;;;;;;;;39.25;31.50;;;;;25.45;56.65;101152.03;4995889;28;45486;-77
2022/07/23 08:52:54;;;;;;;;;35.25;31.50;;;;;25.33;57.27;101146.53;4993924;28;45416;-77
2022/07/23 08:55:21;;;;;;;;;37.50;32.00;;;;;25.30;57.20;101154.84;4996569;28;45460;-77
2022/07/23 08:57:51;;;;;;;;;29.50;27.25;;;;;25.36;57.22;101149.00;4996665;28;45384;-78
2022/07/23 09:00:19;;;;;;;;;34.00;30.75;;;;;25.34;57.09;101153.66;4996260;28;45626;-77
2022/07/23 09:02:46;;;;;;;;;36.00;31.25;;;;;25.22;56.98;101149.13;4978040;28;46357;-78
2022/07/23 09:05:13;;;;;;;;;38.50;33.75;;;;;25.26;57.12;101149.75;4991202;28;45647;-79
2022/07/23 09:08:04;;;;;;;;;36.25;32.50;;;;;25.33;57.29;101151.94;4995944;28;45489;-78
2022/07/23 09:10:29;;;;;;;;;35.75;31.25;;;;;25.23;56.33;101137.31;4990222;28;45533;-78
2022/07/23 09:12:55;;;;;;;;;30.00;26.25;;;;;25.41;56.07;101155.91;4995618;28;45789;-77
2022/07/23 09:15:20;;;;;;;;;34.25;30.25;;;;;25.48;56.41;101159.91;4992971;28;45491;-76
2022/07/23 09:17:46;;;;;;;;;34.50;30.50;;;;;25.70;55.38;101149.19;4995419;28;45572;-76
2022/07/23 09:20:14;;;;;;;;;37.25;28.25;;;;;25.96;54.87;101146.34;4995614;28;45410;-76
2022/07/23 09:22:46;;;;;;;;;34.50;28.00;;;;;26.41;53.09;101138.41;4996492;28;45418;-77
2022/07/23 09:25:20;;;;;;;;;27.00;24.75;;;;;26.94;52.69;101145.16;4994820;28;45534;-77
2022/07/23 09:27:53;;;;;;;;;32.00;28.50;;;;;27.50;50.80;101146.09;4994223;28;45502;-77
2022/07/23 09:30:24;;;;;;;;;24.50;21.00;;;;;28.22;48.29;101137.31;4995868;28;45415;-76
2022/07/23 09:33:06;;;;;;;;;29.50;26.00;;;;;28.52;47.48;101139.22;4995433;28;45486;-77
2022/07/23 09:35:46;;;;;;;;;26.25;24.75;;;;;28.57;47.66;101129.81;4996621;28;45483;-77
2022/07/23 09:38:12;;;;;;;;;27.75;25.75;;;;;28.73;47.14;101134.78;4994801;28;45289;-78
2022/07/23 09:40:37;;;;;;;;;24.50;24.00;;;;;28.78;46.74;101143.41;4994841;28;45573;-77
2022/07/23 09:43:03;;;;;;;;;26.00;25.75;;;;;28.86;47.15;101140.88;4995481;28;45253;-78
2022/07/23 09:45:29;;;;;;;;;21.75;19.75;;;;;28.94;47.06;101126.56;4995272;28;45598;-78
2022/07/23 09:48:11;;;;;;;;;30.75;27.00;;;;;29.05;45.26;101126.50;4994705;28;45526;-77
2022/07/23 09:50:37;;;;;;;;;30.75;26.75;;;;;29.06;46.19;101141.78;4995330;28;45348;-76
2022/07/23 09:53:02;;;;;;;;;26.25;25.00;;;;;29.02;46.21;101145.81;4995606;28;45339;-77
2022/07/23 09:55:39;;;;;;;;;29.75;25.00;;;;;28.97;45.95;101140.78;4990354;28;45490;-78
2022/07/23 09:58:08;;;;;;;;;30.00;28.75;;;;;28.98;45.84;101142.50;4994851;28;45577;-77
2022/07/23 10:00:33;;;;;;;;;25.00;25.00;;;;;29.14;45.17;101144.72;4999769;28;45732;-78
2022/07/23 10:02:59;;;;;;;;;29.75;28.50;;;;;29.16;45.53;101137.25;4995932;28;46218;-77
2022/07/23 10:05:25;;;;;;;;;24.25;23.50;;;;;29.40;44.88;101138.78;4997564;28;45352;-77
2022/07/23 10:07:52;;;;;;;;;27.25;24.75;;;;;29.50;44.50;101134.25;4995779;28;45376;-78
2022/07/23 10:10:17;;;;;;;;;28.00;23.75;;;;;29.51;44.69;101143.25;5002938;28;45588;-77
2022/07/23 10:15:30;;;;;;;;;24.25;17.50;;;;;29.46;45.94;101132.78;4998465;28;45588;-77
2022/07/23 10:17:56;;;;;;;;;24.50;24.25;;;;;29.37;44.99;101129.03;4995040;28;45555;-79
2022/07/23 10:20:21;;;;;;;;;31.50;28.00;;;;;29.20;45.46;101133.31;4993993;28;45427;-77
2022/07/23 10:22:55;;;;;;;;;32.00;28.25;;;;;29.20;45.10;101143.31;4993268;28;46061;-78
2022/07/23 10:25:33;;;;;;;;;34.00;28.25;;;;;29.06;45.89;101148.13;4993495;28;45497;-78
2022/07/23 10:28:24;;;;;;;;;28.25;28.00;;;;;29.07;46.51;101143.53;4994258;28;45531;-76
2022/07/23 10:31:06;;;;;;;;;25.75;22.50;;;;;29.20;46.45;101127.84;4994196;28;45538;-77
2022/07/23 10:33:56;;;;;;;;;32.25;25.75;;;;;29.30;45.59;101137.91;4990722;28;45409;-75
2022/07/23 10:36:44;;;;;;;;;33.50;27.75;;;;;29.31;45.47;101135.03;4992258;28;45474;-78
2022/07/23 10:39:30;;;;;;;;;22.25;21.00;;;;;29.29;45.36;101142.50;4995619;28;45409;-79
2022/07/23 10:42:15;;;;;;;;;22.75;21.00;;;;;29.45;46.15;101150.13;5004143;28;44856;-78
2022/07/23 10:44:45;;;;;;;;;23.50;20.75;;;;;29.63;45.45;101139.41;4996396;28;45474;-78
2022/07/23 10:49:44;;;;;;;;;28.00;26.00;;;;;29.74;44.44;101149.28;4998787;28;45320;-78
2022/07/23 10:52:21;;;;;;;;;24.00;21.00;;;;;29.95;44.37;101154.66;4998491;28;45547;-77
2022/07/23 10:54:50;;;;;;;;;34.50;26.50;;;;;30.18;43.86;101152.47;4993783;28;46153;-78
2022/07/23 10:57:18;;;;;;;;;14.50;13.50;;;;;30.12;43.51;101151.22;4994976;28;45542;-80
2022/07/23 11:00:06;;;;;;;;;23.75;20.75;;;;;30.32;43.50;101144.84;4995949;28;45320;-78
2022/07/23 11:02:33;;;;;;;;;25.75;21.25;;;;;30.30;43.02;101159.47;5008302;28;45407;-77
2022/07/23 11:05:03;;;;;;;;;25.50;23.50;;;;;30.27;43.10;101165.22;4993968;28;45561;-77
2022/07/23 11:07:28;;;;;;;;;17.25;16.00;;;;;30.17;42.71;101164.41;4992421;28;45418;-81
2022/07/23 11:09:54;;;;;;;;;23.75;21.00;;;;;30.03;43.97;101175.72;4995472;28;45506;-80
2022/07/23 11:12:19;;;;;;;;;27.00;24.50;;;;;29.64;44.51;101176.53;5000386;28;45723;-80